EGGDEGTE

Guest
Details From EGGD - Bristol International
To EGTE - Exeter
Flight Number -
Tags generated
Created
Modified
Stats Distance 47 nm / 87 km
Max Altitude 1,000 ft / 305 m
Waypoints 3
Social Downloads 10
Likes 0
Share VATSIM

Download

Looking for another format? Having issues loading an existing format? Contact us
Advertisement - Login to hide

Notes

Basic altitude profile: - Ascent Rate: 2000ft/min - Ascent Speed: 250kts - Cruise Altitude: 7000ft - Cruise Speed: 300kts - Descent Rate: 1500ft/min - Descent Speed: 200kts Options: - Use NATs: yes - Use PACOTS: yes - Use low airways: no - Use high airways: yes

Route

EGGD BUMUX EGTE

ID Type Via Altitude Latitude Longitude Leg Dist Tot Dist Heading (true) Name
O EGGD APT - 0 ft / 0 m 51.38266˚ -2.71892˚ - 0 nm - Bristol International
BUMUX FIX - 1,000 ft / 305 m 50.80444˚ -3.34944˚ 42 nm 42 nm 215° / 214° -
O EGTE APT - 0 ft / 0 m 50.73426˚ -3.41400˚ 4 nm 46 nm 210° / 210° Exeter

Altitude Profile

Advertisement - Login to hide

EGGD

Details ICAO EGGD (BRS)
Name Bristol International
Region United Kingdom
Timezone Europe/London (UTC+1.0)
Stats Elevation 622 ft / 190 m (AMSL)
Location 51.382658° -2.718918°
Runways 1
Magnetic Variation 1.285° W

METAR

EGGD 220020Z AUTO 01011KT 9999 NCD 13/09 Q1016

Decode

TAF

TAF EGGD 212300Z 2200/2224 03008KT 9999 FEW040 PROB30 TEMPO 2204/2209 8000 BKN005 PROB30 TEMPO 2214/2219 5000 +SHRA

Decode

Departure Runways

ID Width Length Bearing (true) Bearing (mag) Surface Threshold Offset Overrun Length
09 148 ft / 45 m 6,655 ft / 2,029 m 86.42° 87.70° Asphalt 0 ft / 0 m 0 ft / 0 m
27 148 ft / 45 m 6,655 ft / 2,029 m 266.44° 267.72° Asphalt 499 ft / 152 m 0 ft / 0 m

EGTE

Details ICAO EGTE (EXT)
Name Exeter
Region United Kingdom
Timezone Europe/London (UTC+1.0)
Stats Elevation 102 ft / 31 m (AMSL)
Location 50.734260° -3.414000°
Runways 1
Magnetic Variation 1.449° W

METAR

EGTE 220020Z 34005KT CAVOK 13/10 Q1015

Decode

TAF

Not found

Destination Runways

ID Width Length Bearing (true) Bearing (mag) Surface Threshold Offset Overrun Length
08 151 ft / 46 m 6,666 ft / 2,032 m 76.09° 77.54° Asphalt 0 ft / 0 m 0 ft / 0 m
26 151 ft / 46 m 6,666 ft / 2,032 m 256.11° 257.56° Asphalt 0 ft / 0 m 0 ft / 0 m

Approach Navaids

Runway Type Ident Frequency Range Bearing (true) Bearing (mag) Slope Elevation
08 Localiser IET 109.90 MHz 18 nm / 33 km 76.11° 77.56° - 102 ft / 31 m (AMSL)
08 Glidescope IET 109.90 MHz 10 nm / 19 km 76.10° 77.55° 3.00° 50 ft / 15 m (AMSL)
08 DME IET 109.90 MHz 18 nm / 33 km - - - 102 ft / 31 m (AMSL)
26 Localiser IXR 109.90 MHz 18 nm / 33 km 256.10° 257.55° - 102 ft / 31 m (AMSL)
26 Glidescope IXR 109.90 MHz 10 nm / 19 km 256.10° 257.55° 3.50° 58 ft / 18 m (AMSL)
26 DME IXR 109.90 MHz 18 nm / 33 km - - - 102 ft / 31 m (AMSL)

Popular Alternatives